Time;durP1;ratioP1;P1;durP2;ratioP2;P2;SDS_P1;SDS_P2;PMS_P1;PMS_P2;Temp;Humidity;BMP_temperature;BMP_pressure;BME280_temperature;BME280_humidity;BME280_pressure;Samples;Min_cycle;Max_cycle;Signal;HPM_P1;HPM_P2
2023/11/25 00:02:22;;;;;;;3.50;0.30;;;3.00;99.90;;;;;;4999323;28;20777;-68
2023/11/25 00:04:49;;;;;;;3.97;0.50;;;3.00;99.90;;;;;;4999292;28;20449;-68
2023/11/25 00:07:14;;;;;;;3.60;0.50;;;3.10;99.90;;;;;;4999089;28;20906;-68
2023/11/25 00:09:40;;;;;;;3.40;0.40;;;3.10;99.90;;;;;;4998096;28;20403;-68
2023/11/25 00:12:06;;;;;;;3.50;0.60;;;3.10;99.90;;;;;;4990289;28;20877;-69
2023/11/25 00:14:31;;;;;;;4.40;1.00;;;3.20;99.90;;;;;;5008630;28;20496;-68
2023/11/25 00:16:57;;;;;;;7.20;0.80;;;3.20;99.90;;;;;;5009771;28;20400;-68
2023/11/25 00:19:22;;;;;;;4.22;0.45;;;3.30;99.90;;;;;;5009942;28;20409;-68
2023/11/25 00:21:48;;;;;;;3.50;0.50;;;3.20;42.40;;;;;;5010800;28;20400;-68
2023/11/25 00:24:13;;;;;;;3.70;0.47;;;3.20;1.00;;;;;;5009853;28;20798;-68
2023/11/25 00:26:39;;;;;;;3.75;0.50;;;3.30;1.00;;;;;;4991130;28;20398;-68
2023/11/25 00:29:04;;;;;;;3.20;0.20;;;3.40;1.00;;;;;;4989999;28;20386;-68
2023/11/25 00:31:30;;;;;;;3.60;0.40;;;3.30;1.00;;;;;;4990325;28;20430;-68
2023/11/25 00:33:55;;;;;;;5.07;0.73;;;3.40;1.00;;;;;;4986698;28;20494;-67
2023/11/25 00:36:21;;;;;;;3.70;0.70;;;3.50;1.00;;;;;;5003703;28;20402;-67
2023/11/25 00:38:46;;;;;;;6.10;0.50;;;3.40;99.90;;;;;;4999498;28;20409;-67
2023/11/25 00:41:12;;;;;;;3.30;0.30;;;3.40;99.90;;;;;;4989565;28;20387;-67
2023/11/25 00:43:38;;;;;;;5.40;0.40;;;3.50;99.90;;;;;;5005750;28;20393;-67
2023/11/25 00:46:03;;;;;;;3.33;0.30;;;3.60;99.90;;;;;;4973268;28;20396;-67
2023/11/25 00:48:31;;;;;;;3.20;0.20;;;3.50;27.40;;;;;;4998204;28;20393;-67
2023/11/25 00:50:57;;;;;;;3.80;0.50;;;3.50;39.60;;;;;;4998309;28;20441;-68
2023/11/25 00:53:23;;;;;;;3.30;0.30;;;3.40;23.50;;;;;;5009368;28;20397;-67
2023/11/25 00:55:48;;;;;;;3.50;0.30;;;3.60;19.40;;;;;;4998782;28;20387;-67
2023/11/25 00:58:14;;;;;;;5.40;0.50;;;3.50;1.00;;;;;;4989897;28;20410;-67
2023/11/25 01:00:39;;;;;;;4.18;0.55;;;3.50;1.00;;;;;;4990057;28;20438;-67
2023/11/25 01:03:06;;;;;;;4.03;0.63;;;3.60;1.00;;;;;;4989940;28;20386;-67
2023/11/25 01:05:32;;;;;;;3.80;0.70;;;3.60;1.00;;;;;;4990197;28;20406;-67
2023/11/25 01:07:58;;;;;;;3.30;0.20;;;3.60;1.00;;;;;;5000842;28;20716;-67
2023/11/25 01:10:23;;;;;;;3.50;0.40;;;3.50;1.00;;;;;;5012966;28;20448;-67
2023/11/25 01:12:49;;;;;;;3.58;0.50;;;3.40;1.00;;;;;;5012882;28;20388;-67
2023/11/25 01:15:15;;;;;;;4.33;0.67;;;3.50;1.00;;;;;;5013130;28;20451;-67
2023/11/25 01:17:41;;;;;;;3.70;0.45;;;3.60;1.00;;;;;;5013233;28;20923;-67
2023/11/25 01:20:09;;;;;;;3.40;0.30;;;3.50;1.00;;;;;;5004582;28;20429;-67
2023/11/25 01:22:35;;;;;;;4.40;0.73;;;3.30;1.00;;;;;;5009003;28;20472;-68
2023/11/25 01:25:01;;;;;;;6.80;0.50;;;3.40;1.00;;;;;;5009845;28;20468;-67
2023/11/25 01:27:27;;;;;;;4.70;0.43;;;3.20;1.00;;;;;;4993137;28;20402;-67
2023/11/25 01:29:52;;;;;;;3.60;0.38;;;3.20;1.00;;;;;;5002130;28;20503;-68
2023/11/25 01:32:18;;;;;;;3.90;0.70;;;3.20;1.00;;;;;;4995883;28;20391;-67
2023/11/25 01:34:43;;;;;;;5.22;0.63;;;3.30;1.00;;;;;;4997604;28;20389;-67
2023/11/25 01:37:11;;;;;;;3.60;0.50;;;3.20;1.00;;;;;;4995628;28;20398;-67
2023/11/25 01:39:37;;;;;;;6.90;0.70;;;3.20;1.00;;;;;;5012573;28;20420;-67
2023/11/25 01:42:02;;;;;;;3.50;0.35;;;3.20;1.00;;;;;;5002549;28;20833;-68
2023/11/25 01:44:28;;;;;;;3.60;0.40;;;3.20;1.00;;;;;;4992850;28;20445;-68
2023/11/25 01:46:54;;;;;;;6.43;0.68;;;3.20;1.00;;;;;;4993091;28;20402;-68
2023/11/25 01:49:22;;;;;;;3.50;0.40;;;3.20;1.00;;;;;;4997263;28;20429;-68
2023/11/25 01:51:48;;;;;;;6.50;0.50;;;3.10;1.00;;;;;;5012695;28;20429;-68
2023/11/25 01:54:15;;;;;;;3.50;0.30;;;3.10;1.00;;;;;;5005131;28;20394;-68
2023/11/25 01:56:42;;;;;;;5.75;0.60;;;3.00;1.00;;;;;;4992202;28;20394;-68
2023/11/25 01:59:11;;;;;;;4.70;0.60;;;3.00;1.00;;;;;;4992762;28;20416;-68
2023/11/25 02:01:37;;;;;;;3.60;0.60;;;3.00;1.00;;;;;;4992742;28;20395;-68
2023/11/25 02:04:03;;;;;;;4.05;0.70;;;3.10;1.00;;;;;;4992661;28;20865;-68
2023/11/25 02:06:28;;;;;;;3.60;0.60;;;3.10;1.00;;;;;;5008359;28;20407;-68
2023/11/25 02:08:54;;;;;;;3.80;0.50;;;3.10;1.00;;;;;;5011832;28;20417;-68
2023/11/25 02:11:20;;;;;;;7.70;0.73;;;3.10;1.00;;;;;;5003870;28;20422;-68
2023/11/25 02:13:45;;;;;;;5.40;0.70;;;3.00;1.00;;;;;;4992627;28;20421;-68
2023/11/25 02:16:13;;;;;;;6.10;0.43;;;3.00;1.00;;;;;;4992581;28;20903;-68
2023/11/25 02:18:38;;;;;;;5.10;0.57;;;3.00;1.00;;;;;;5000246;28;20424;-68
2023/11/25 02:21:05;;;;;;;3.70;0.40;;;3.00;1.00;;;;;;5010863;28;20431;-68
2023/11/25 02:23:31;;;;;;;4.90;0.80;;;2.80;1.00;;;;;;5000728;28;20964;-68
2023/11/25 02:25:57;;;;;;;4.13;0.60;;;2.80;1.00;;;;;;5004991;28;20447;-68
2023/11/25 02:28:23;;;;;;;3.80;0.70;;;2.80;1.00;;;;;;5011538;28;20397;-68
2023/11/25 02:30:49;;;;;;;6.70;0.70;;;2.90;1.00;;;;;;5011953;28;20440;-68
2023/11/25 02:33:16;;;;;;;3.95;0.50;;;2.80;1.00;;;;;;5009104;28;20403;-68
2023/11/25 02:35:48;;;;;;;3.80;0.50;;;2.70;1.00;;;;;;5000631;28;20403;-68
2023/11/25 02:38:14;;;;;;;6.70;0.70;;;2.80;1.00;;;;;;5010246;28;20754;-68
2023/11/25 02:40:48;;;;;;;4.80;0.77;;;2.70;1.00;;;;;;4997125;28;20402;-68
2023/11/25 02:43:16;;;;;;;7.10;0.50;;;2.70;1.00;;;;;;4992189;28;20457;-68
2023/11/25 02:45:42;;;;;;;3.57;0.47;;;2.90;1.00;;;;;;4991804;28;20928;-66
2023/11/25 02:48:09;;;;;;;3.80;0.57;;;3.10;1.00;;;;;;4992157;28;20414;-66
2023/11/25 02:50:34;;;;;;;4.10;0.77;;;3.20;1.00;;;;;;4991590;28;20420;-67
2023/11/25 02:53:00;;;;;;;3.80;0.60;;;3.20;1.00;;;;;;5007517;28;20854;-67
2023/11/25 02:55:26;;;;;;;5.20;0.40;;;3.30;1.00;;;;;;5009711;28;20397;-67
2023/11/25 02:57:52;;;;;;;6.13;0.65;;;3.10;1.00;;;;;;5002521;28;20389;-68
2023/11/25 03:02:59;;;;;;;4.38;0.80;;;3.00;1.00;;;;;;5008482;28;20716;-67
2023/11/25 03:05:31;;;;;;;4.18;0.75;;;3.00;1.00;;;;;;5011326;28;20905;-68
2023/11/25 03:07:57;;;;;;;3.83;0.83;;;3.00;1.00;;;;;;4997289;28;20424;-68
2023/11/25 03:10:23;;;;;;;3.57;0.43;;;3.00;1.00;;;;;;5010933;28;20467;-68
2023/11/25 03:12:49;;;;;;;15.30;1.50;;;3.00;1.00;;;;;;5001238;28;20377;-68
2023/11/25 03:15:15;;;;;;;5.00;1.38;;;3.10;1.00;;;;;;5002505;28;20405;-68
2023/11/25 03:17:40;;;;;;;3.60;0.63;;;3.10;1.00;;;;;;4991594;28;20394;-68
2023/11/25 03:20:09;;;;;;;4.73;0.83;;;3.10;1.00;;;;;;4995831;28;20765;-68
2023/11/25 03:22:35;;;;;;;3.80;0.60;;;3.10;1.00;;;;;;4991478;28;20929;-68
2023/11/25 03:25:01;;;;;;;4.10;0.70;;;3.00;1.00;;;;;;4990815;28;20410;-68
2023/11/25 03:27:31;;;;;;;7.10;0.70;;;3.10;1.00;;;;;;4991294;28;20537;-68
2023/11/25 03:30:00;;;;;;;4.07;0.70;;;2.80;1.00;;;;;;4990968;28;20771;-68
2023/11/25 03:32:25;;;;;;;3.65;0.50;;;2.90;1.00;;;;;;4990964;28;20398;-68
2023/11/25 03:34:51;;;;;;;4.53;0.93;;;2.90;1.00;;;;;;4990820;28;20445;-68
2023/11/25 03:37:17;;;;;;;4.00;0.90;;;2.90;1.00;;;;;;5001665;28;20398;-68
2023/11/25 03:39:43;;;;;;;3.67;0.50;;;2.80;1.00;;;;;;4990687;28;20409;-67
2023/11/25 03:42:08;;;;;;;3.50;0.53;;;2.80;1.00;;;;;;5001373;28;20715;-68
2023/11/25 03:44:34;;;;;;;4.80;0.60;;;2.80;1.00;;;;;;5010601;28;20489;-68
2023/11/25 03:47:01;;;;;;;5.20;0.90;;;2.80;1.00;;;;;;5010562;28;20488;-66
2023/11/25 03:49:27;;;;;;;3.70;0.87;;;2.90;1.00;;;;;;5008315;28;20395;-67
2023/11/25 03:51:52;;;;;;;4.13;0.83;;;2.80;1.00;;;;;;5009616;28;20413;-67
2023/11/25 03:54:18;;;;;;;3.70;0.50;;;2.90;1.00;;;;;;5010793;28;20872;-67
2023/11/25 03:56:43;;;;;;;4.13;0.90;;;2.70;1.00;;;;;;4998148;28;20402;-67
2023/11/25 03:59:09;;;;;;;5.38;0.70;;;2.70;1.00;;;;;;4990821;28;20410;-67
2023/11/25 04:01:35;;;;;;;4.17;0.90;;;2.60;1.00;;;;;;5001440;28;20409;-67
2023/11/25 04:04:03;;;;;;;3.93;0.50;;;2.60;1.00;;;;;;4993711;28;20852;-67
2023/11/25 04:06:29;;;;;;;4.05;0.50;;;2.60;1.00;;;;;;5004454;28;20878;-67
2023/11/25 04:08:55;;;;;;;3.77;0.60;;;2.70;1.00;;;;;;5010080;28;20432;-67
2023/11/25 04:11:20;;;;;;;3.80;0.70;;;2.70;1.00;;;;;;5010259;28;20416;-67
2023/11/25 04:13:47;;;;;;;5.80;0.90;;;2.80;1.00;;;;;;5010638;28;20488;-67
2023/11/25 04:16:12;;;;;;;4.20;0.98;;;2.70;1.00;;;;;;5007152;28;20447;-67
2023/11/25 04:18:38;;;;;;;3.50;0.40;;;2.70;1.00;;;;;;4993664;28;20402;-67
2023/11/25 04:21:04;;;;;;;3.80;0.80;;;2.80;1.00;;;;;;5003254;28;20783;-67
2023/11/25 04:23:30;;;;;;;4.83;1.13;;;2.60;1.00;;;;;;5009876;28;20752;-67
2023/11/25 04:25:56;;;;;;;5.80;1.10;;;2.70;1.00;;;;;;4990203;28;20409;-67
2023/11/25 04:28:21;;;;;;;6.80;1.10;;;2.70;1.00;;;;;;5002280;28;20734;-67
2023/11/25 04:30:47;;;;;;;5.20;1.10;;;2.70;1.00;;;;;;5001217;28;20415;-67
2023/11/25 04:33:14;;;;;;;4.10;0.60;;;2.80;1.00;;;;;;4994105;28;20394;-67
2023/11/25 04:35:39;;;;;;;8.30;1.33;;;2.80;1.00;;;;;;4984733;28;20421;-67
2023/11/25 04:38:05;;;;;;;4.57;0.70;;;2.70;1.00;;;;;;4994084;28;20394;-67
2023/11/25 04:40:31;;;;;;;3.70;0.50;;;2.70;1.00;;;;;;5006337;28;20795;-67
2023/11/25 04:42:56;;;;;;;10.45;1.05;;;2.70;1.00;;;;;;5006972;28;20411;-68
2023/11/25 04:45:22;;;;;;;4.00;0.50;;;2.80;1.00;;;;;;4993890;28;20394;-67
2023/11/25 04:47:53;;;;;;;3.97;0.53;;;2.80;1.00;;;;;;4994710;28;20391;-67
2023/11/25 04:50:20;;;;;;;3.80;0.60;;;2.70;1.00;;;;;;4994055;28;20452;-67
2023/11/25 04:52:46;;;;;;;4.38;0.90;;;2.70;1.00;;;;;;4994016;28;20402;-68
2023/11/25 04:55:12;;;;;;;6.97;1.13;;;2.70;1.00;;;;;;4997714;28;20392;-67
2023/11/25 04:57:39;;;;;;;3.97;0.88;;;2.80;1.00;;;;;;5013580;28;20397;-67
2023/11/25 05:00:09;;;;;;;3.67;0.50;;;2.80;1.00;;;;;;5013400;28;20887;-67
2023/11/25 05:02:36;;;;;;;3.90;0.70;;;2.70;1.00;;;;;;5013497;28;20515;-67
2023/11/25 05:05:03;;;;;;;7.10;0.82;;;2.70;1.00;;;;;;5010718;28;20747;-68
2023/11/25 05:07:29;;;;;;;4.40;1.08;;;2.70;1.00;;;;;;4989237;28;20516;-67
2023/11/25 05:09:55;;;;;;;5.40;0.60;;;2.80;1.00;;;;;;4992408;28;20821;-67
2023/11/25 05:12:20;;;;;;;3.80;0.60;;;2.70;1.00;;;;;;4994272;28;20450;-67
2023/11/25 05:14:46;;;;;;;3.50;0.30;;;2.70;1.00;;;;;;4993377;28;20401;-67
2023/11/25 05:17:11;;;;;;;6.07;0.93;;;2.60;1.00;;;;;;4993630;28;20406;-67
2023/11/25 05:19:37;;;;;;;3.50;0.40;;;2.50;1.00;;;;;;5000374;28;20778;-67
2023/11/25 05:22:04;;;;;;;3.78;0.52;;;2.50;1.00;;;;;;5003874;28;20399;-67
2023/11/25 05:24:30;;;;;;;4.00;0.50;;;2.30;1.00;;;;;;4993710;28;20470;-67
2023/11/25 05:26:55;;;;;;;4.40;0.50;;;2.40;1.00;;;;;;5004460;28;20489;-67
2023/11/25 05:29:21;;;;;;;6.60;0.90;;;2.30;1.00;;;;;;5013113;28;20771;-67
2023/11/25 05:31:46;;;;;;;3.80;0.50;;;2.30;1.00;;;;;;5008199;28;20421;-67
2023/11/25 05:34:12;;;;;;;9.70;1.40;;;2.40;1.00;;;;;;4996885;28;20394;-67
2023/11/25 05:36:38;;;;;;;3.85;0.60;;;2.30;1.00;;;;;;4997113;28;20400;-67
2023/11/25 05:39:11;;;;;;;5.40;1.00;;;2.40;1.00;;;;;;4996547;28;20903;-68
2023/11/25 05:41:37;;;;;;;3.92;0.57;;;2.50;1.00;;;;;;4992961;28;20410;-68
2023/11/25 05:44:06;;;;;;;6.35;0.95;;;2.40;1.00;;;;;;4993325;28;20399;-68
2023/11/25 05:46:33;;;;;;;4.10;0.60;;;2.40;1.00;;;;;;5011458;28;20416;-68
2023/11/25 05:48:58;;;;;;;4.40;0.90;;;2.30;1.00;;;;;;5012760;28;20388;-68
2023/11/25 05:51:32;;;;;;;3.92;0.45;;;2.40;1.00;;;;;;5012169;28;21003;-66
2023/11/25 05:53:58;;;;;;;3.77;0.60;;;2.40;1.00;;;;;;5012116;28;20385;-67
2023/11/25 05:56:26;;;;;;;3.63;0.43;;;2.40;1.00;;;;;;5012111;28;20459;-67
2023/11/25 05:58:52;;;;;;;8.70;1.50;;;2.30;1.00;;;;;;4973683;28;20394;-67
2023/11/25 06:01:19;;;;;;;4.20;0.70;;;2.20;1.00;;;;;;4973612;28;20427;-67
2023/11/25 06:03:44;;;;;;;4.10;1.00;;;2.20;1.00;;;;;;4973678;28;20404;-67
2023/11/25 06:06:11;;;;;;;3.70;0.50;;;2.20;1.00;;;;;;4973131;28;20389;-67
2023/11/25 06:08:37;;;;;;;4.20;0.60;;;2.20;1.00;;;;;;4973035;28;20416;-67
2023/11/25 06:11:03;;;;;;;4.20;0.70;;;2.30;1.00;;;;;;4973177;28;20428;-67
2023/11/25 06:13:29;;;;;;;3.90;0.40;;;2.30;1.00;;;;;;4973184;28;20458;-67
2023/11/25 06:15:56;;;;;;;3.83;0.50;;;2.40;1.00;;;;;;4973040;28;20396;-67
2023/11/25 06:18:22;;;;;;;4.80;0.95;;;2.50;1.00;;;;;;4973426;28;20539;-68
2023/11/25 06:20:47;;;;;;;5.25;0.80;;;2.60;1.00;;;;;;4973322;28;20982;-67
2023/11/25 06:23:14;;;;;;;5.77;0.50;;;2.60;1.00;;;;;;4973048;28;20775;-67
2023/11/25 06:25:42;;;;;;;4.10;0.40;;;2.60;1.00;;;;;;4973277;28;20441;-67
2023/11/25 06:28:14;;;;;;;9.73;1.40;;;2.60;1.00;;;;;;4972653;28;20780;-68
2023/11/25 06:30:40;;;;;;;3.63;0.55;;;2.80;1.00;;;;;;4972467;28;20427;-68
2023/11/25 06:33:06;;;;;;;3.40;0.30;;;2.90;1.00;;;;;;4975715;28;20419;-68
2023/11/25 06:35:33;;;;;;;4.10;0.60;;;2.90;1.00;;;;;;5011661;28;20424;-68
2023/11/25 06:37:59;;;;;;;3.50;0.35;;;3.00;1.00;;;;;;5011550;28;20389;-68
2023/11/25 06:40:24;;;;;;;4.70;1.33;;;3.00;1.00;;;;;;5012005;28;20416;-68
2023/11/25 06:42:50;;;;;;;3.60;0.50;;;2.90;1.00;;;;;;5012150;28;20381;-67
2023/11/25 06:45:15;;;;;;;5.10;0.90;;;2.90;1.00;;;;;;5002197;28;20459;-68
2023/11/25 06:47:41;;;;;;;3.90;0.70;;;2.90;1.00;;;;;;4991847;28;20477;-66
2023/11/25 06:50:09;;;;;;;7.13;1.30;;;3.00;1.00;;;;;;4991855;28;20752;-66
2023/11/25 06:52:34;;;;;;;7.60;0.50;;;2.80;1.00;;;;;;4996286;28;20429;-66
2023/11/25 06:55:00;;;;;;;6.30;1.20;;;2.80;1.00;;;;;;5003466;28;20406;-67
2023/11/25 06:57:26;;;;;;;6.90;0.50;;;2.70;1.00;;;;;;5005281;28;20428;-67
2023/11/25 06:59:51;;;;;;;3.80;0.70;;;2.70;1.00;;;;;;4994348;28;20794;-67
2023/11/25 07:02:18;;;;;;;4.60;0.50;;;2.90;1.00;;;;;;4992768;28;20398;-67
2023/11/25 07:04:44;;;;;;;4.20;0.50;;;2.90;1.00;;;;;;4989248;28;20766;-67
2023/11/25 07:07:09;;;;;;;4.67;0.70;;;3.00;1.00;;;;;;4987375;28;20444;-67
2023/11/25 07:09:35;;;;;;;4.43;1.17;;;2.90;1.00;;;;;;5000310;28;20403;-68
2023/11/25 07:12:00;;;;;;;6.00;1.00;;;2.90;1.00;;;;;;4991923;28;20422;-67
2023/11/25 07:14:26;;;;;;;4.03;0.90;;;2.80;1.00;;;;;;5010284;28;20914;-67
2023/11/25 07:16:52;;;;;;;6.60;1.10;;;2.70;1.00;;;;;;4998755;28;20394;-67
2023/11/25 07:19:17;;;;;;;5.22;0.50;;;2.80;1.00;;;;;;4994815;28;20878;-67
2023/11/25 07:21:44;;;;;;;5.47;0.80;;;2.90;1.00;;;;;;5010744;28;20388;-66
2023/11/25 07:24:11;;;;;;;5.45;0.65;;;3.00;1.00;;;;;;4991228;28;20949;-67
2023/11/25 07:26:41;;;;;;;9.30;0.87;;;3.00;1.00;;;;;;4997213;28;20405;-67
2023/11/25 07:29:09;;;;;;;6.10;0.80;;;3.10;1.00;;;;;;5010192;28;20460;-67
2023/11/25 07:31:36;;;;;;;4.90;0.70;;;3.10;1.00;;;;;;5010357;28;20505;-66
2023/11/25 07:34:03;;;;;;;4.70;0.47;;;3.20;1.00;;;;;;5010664;28;20393;-66
2023/11/25 07:36:28;;;;;;;5.70;0.40;;;3.40;1.00;;;;;;5004739;28;20406;-68
2023/11/25 07:38:54;;;;;;;3.70;0.50;;;3.30;1.00;;;;;;4990917;28;20395;-68
2023/11/25 07:41:20;;;;;;;8.80;0.50;;;3.30;1.00;;;;;;4991220;28;20445;-66
2023/11/25 07:43:45;;;;;;;4.10;0.68;;;3.40;1.00;;;;;;5003406;28;20409;-67
2023/11/25 07:46:11;;;;;;;3.60;0.50;;;3.40;1.00;;;;;;4993201;28;20430;-67
2023/11/25 07:48:37;;;;;;;9.70;0.90;;;3.50;1.00;;;;;;5010849;28;20408;-67
2023/11/25 07:51:02;;;;;;;4.07;0.90;;;3.60;1.00;;;;;;5002512;28;20421;-68
2023/11/25 07:53:29;;;;;;;6.53;0.70;;;3.60;1.00;;;;;;4999337;28;20920;-68
2023/11/25 07:55:54;;;;;;;4.15;0.77;;;3.50;1.00;;;;;;4991647;28;20414;-68
2023/11/25 07:58:22;;;;;;;5.00;0.50;;;3.50;1.00;;;;;;4996594;28;20401;-68
2023/11/25 08:00:49;;;;;;;4.30;0.70;;;3.40;1.00;;;;;;4994878;28;21017;-67
2023/11/25 08:03:15;;;;;;;3.80;0.50;;;3.40;1.00;;;;;;5007073;28;20398;-68
2023/11/25 08:05:41;;;;;;;4.15;0.60;;;3.40;1.00;;;;;;4995288;28;20958;-67
2023/11/25 08:08:07;;;;;;;4.50;0.80;;;3.30;1.00;;;;;;5009369;28;20393;-67
2023/11/25 08:10:34;;;;;;;4.10;0.70;;;3.20;1.00;;;;;;5010166;28;20451;-68
2023/11/25 08:13:00;;;;;;;3.90;0.40;;;3.20;1.00;;;;;;4998610;28;20410;-67
2023/11/25 08:15:26;;;;;;;8.05;1.00;;;3.30;1.00;;;;;;4997600;28;20403;-68
2023/11/25 08:17:52;;;;;;;5.25;1.00;;;3.10;1.00;;;;;;4990475;28;20885;-67
2023/11/25 08:20:17;;;;;;;6.22;1.50;;;3.20;1.00;;;;;;4992126;28;20397;-68
2023/11/25 08:22:43;;;;;;;3.80;0.67;;;3.40;1.00;;;;;;4990636;28;20399;-68
2023/11/25 08:25:09;;;;;;;17.67;0.77;;;3.40;1.00;;;;;;4996903;28;20392;-68
2023/11/25 08:27:36;;;;;;;6.28;0.50;;;3.50;1.00;;;;;;5009504;28;20415;-67
2023/11/25 08:30:02;;;;;;;4.90;0.70;;;3.50;1.00;;;;;;5009847;28;20480;-68
2023/11/25 08:32:30;;;;;;;6.50;0.40;;;3.50;1.00;;;;;;5001280;28;20399;-68
2023/11/25 08:34:56;;;;;;;7.80;0.80;;;3.50;1.00;;;;;;4990428;28;20477;-68
2023/11/25 08:37:27;;;;;;;6.30;0.60;;;3.60;1.00;;;;;;4990712;28;20952;-68
2023/11/25 08:39:53;;;;;;;3.60;0.50;;;4.00;1.00;;;;;;5002974;28;20384;-68
2023/11/25 08:42:19;;;;;;;3.80;0.70;;;5.00;99.90;;;;;;4995134;28;20764;-68
2023/11/25 08:44:46;;;;;;;3.40;0.20;;;4.80;1.00;;;;;;4990238;28;20422;-68
2023/11/25 08:47:11;;;;;;;3.40;0.20;;;4.50;1.00;;;;;;4991394;28;20428;-68
2023/11/25 08:49:37;;;;;;;3.60;0.40;;;4.00;1.00;;;;;;5008638;28;20435;-68
2023/11/25 08:52:02;;;;;;;4.20;0.50;;;3.70;1.00;;;;;;5002012;28;20456;-68
2023/11/25 08:54:36;;;;;;;3.50;0.40;;;3.60;1.00;;;;;;4979620;28;20458;-68
2023/11/25 08:57:07;;;;;;;6.32;0.60;;;3.80;1.00;;;;;;5001865;28;20401;-66
2023/11/25 08:59:33;;;;;;;7.10;1.10;;;3.90;1.00;;;;;;4993156;28;20466;-67
2023/11/25 09:01:59;;;;;;;4.45;0.57;;;4.30;1.00;;;;;;4990454;28;20485;-68
2023/11/25 09:04:27;;;;;;;4.00;0.60;;;4.60;1.00;;;;;;4988764;28;20928;-67
2023/11/25 09:06:55;;;;;;;6.40;0.80;;;5.30;1.00;;;;;;4990368;28;20402;-68
2023/11/25 09:09:20;;;;;;;6.80;0.80;;;5.80;1.00;;;;;;4998808;28;20428;-69
2023/11/25 09:11:50;;;;;;;7.32;1.00;;;5.90;1.00;;;;;;5010187;28;20856;-69
2023/11/25 09:14:16;;;;;;;7.13;0.70;;;6.00;1.00;;;;;;5009503;28;20385;-68
2023/11/25 09:16:43;;;;;;;5.18;0.95;;;5.40;1.00;;;;;;4996302;28;20479;-67
2023/11/25 09:19:08;;;;;;;4.28;0.45;;;5.30;1.00;;;;;;4990057;28;20395;-66
2023/11/25 09:21:34;;;;;;;5.40;0.60;;;5.00;1.00;;;;;;4990114;28;20397;-67
2023/11/25 09:24:00;;;;;;;4.77;0.77;;;4.80;1.00;;;;;;4990282;28;20426;-68
2023/11/25 09:26:25;;;;;;;6.55;0.70;;;4.60;1.00;;;;;;4990348;28;20383;-68
2023/11/25 09:28:52;;;;;;;3.90;0.50;;;4.80;1.00;;;;;;4990369;28;20502;-68
2023/11/25 09:31:18;;;;;;;4.38;0.88;;;4.60;1.00;;;;;;4993746;28;20422;-68
2023/11/25 09:33:44;;;;;;;3.80;0.70;;;4.70;1.00;;;;;;4993378;28;20394;-67
2023/11/25 09:36:10;;;;;;;4.25;0.80;;;4.60;1.00;;;;;;4993096;28;20394;-67
2023/11/25 09:38:35;;;;;;;15.67;1.10;;;4.90;1.00;;;;;;4993086;28;20406;-68
2023/11/25 09:41:01;;;;;;;7.22;1.40;;;5.00;1.00;;;;;;5002073;28;20397;-67
2023/11/25 09:43:29;;;;;;;7.07;1.52;;;5.20;1.00;;;;;;5012439;28;20404;-67
2023/11/25 09:45:54;;;;;;;5.20;1.00;;;5.60;1.00;;;;;;5012983;28;20439;-68
2023/11/25 09:48:21;;;;;;;7.03;0.80;;;5.80;1.00;;;;;;5011535;28;20404;-68
2023/11/25 09:50:51;;;;;;;5.50;1.20;;;5.40;1.00;;;;;;4993413;28;20477;-68
2023/11/25 09:53:24;;;;;;;4.30;0.80;;;5.70;1.00;;;;;;4992894;28;20489;-68
2023/11/25 09:56:04;;;;;;;6.70;0.65;;;5.60;1.00;;;;;;4993449;28;20394;-67
2023/11/25 09:58:34;;;;;;;9.77;0.73;;;5.40;1.00;;;;;;4991359;28;20401;-67
2023/11/25 10:01:00;;;;;;;6.00;1.30;;;5.20;1.00;;;;;;4992102;28;20402;-68
2023/11/25 10:03:28;;;;;;;7.30;0.90;;;5.60;1.00;;;;;;4992060;28;20394;-67
2023/11/25 10:05:54;;;;;;;6.70;0.80;;;5.60;1.00;;;;;;4989454;28;20391;-68
2023/11/25 10:08:19;;;;;;;11.70;1.30;;;5.40;1.00;;;;;;4992342;28;20578;-69
2023/11/25 10:11:08;;;;;;;11.57;1.10;;;5.30;1.00;;;;;;4992244;28;20777;-69
2023/11/25 10:13:35;;;;;;;6.00;0.50;;;5.20;1.00;;;;;;4989605;28;20559;-68
2023/11/25 10:16:02;;;;;;;9.00;1.60;;;5.10;1.00;;;;;;4990930;28;20390;-67
2023/11/25 10:18:29;;;;;;;6.63;0.90;;;5.00;1.00;;;;;;4992071;28;20516;-67
2023/11/25 10:20:58;;;;;;;5.82;1.40;;;4.90;1.00;;;;;;4989629;28;20516;-68
2023/11/25 10:23:24;;;;;;;5.40;0.80;;;4.80;1.00;;;;;;4992365;28;20414;-68
2023/11/25 10:25:53;;;;;;;5.25;1.25;;;5.00;1.00;;;;;;4992297;28;20482;-68
2023/11/25 10:28:25;;;;;;;5.15;0.88;;;4.90;1.00;;;;;;4992112;28;20396;-68
2023/11/25 10:30:55;;;;;;;6.45;0.95;;;4.90;1.00;;;;;;4991948;28;20422;-67
2023/11/25 10:33:24;;;;;;;4.40;0.70;;;4.90;1.00;;;;;;4992437;28;20478;-67
2023/11/25 10:35:51;;;;;;;4.93;1.10;;;4.80;1.00;;;;;;4991906;28;20433;-67
2023/11/25 10:38:19;;;;;;;5.70;1.00;;;4.90;1.00;;;;;;4992911;28;20517;-67
2023/11/25 10:40:45;;;;;;;8.60;0.93;;;5.00;1.00;;;;;;4987683;28;20399;-67
2023/11/25 10:43:11;;;;;;;4.60;0.93;;;5.00;1.00;;;;;;4991351;28;21062;-66
2023/11/25 10:45:38;;;;;;;6.15;1.38;;;5.00;1.00;;;;;;4991496;28;20434;-68
2023/11/25 10:48:04;;;;;;;5.40;0.90;;;5.30;1.00;;;;;;4989988;28;20411;-68
2023/11/25 10:50:31;;;;;;;10.37;1.63;;;5.20;1.00;;;;;;4991900;28;20431;-67
2023/11/25 10:52:58;;;;;;;4.13;1.08;;;5.50;1.00;;;;;;4991657;28;20973;-68
2023/11/25 10:55:26;;;;;;;8.60;1.63;;;5.70;1.00;;;;;;4991782;28;20410;-68
2023/11/25 10:57:52;;;;;;;7.90;0.90;;;5.50;1.00;;;;;;4994385;28;20405;-66
2023/11/25 11:00:19;;;;;;;6.50;1.20;;;5.40;1.00;;;;;;4996184;28;20766;-68
2023/11/25 11:02:54;;;;;;;4.68;0.90;;;5.40;1.00;;;;;;4991274;28;20394;-68
2023/11/25 11:05:45;;;;;;;9.35;1.30;;;5.20;1.00;;;;;;4990951;28;20456;-67
2023/11/25 11:08:36;;;;;;;4.43;0.88;;;5.00;1.00;;;;;;4991080;28;20461;-67
2023/11/25 11:11:11;;;;;;;6.53;1.10;;;5.10;1.00;;;;;;4990588;28;20440;-67
2023/11/25 11:13:41;;;;;;;7.77;1.43;;;5.00;1.00;;;;;;4991259;28;20655;-67
2023/11/25 11:16:15;;;;;;;4.00;0.70;;;4.80;1.00;;;;;;4991464;28;20414;-66
2023/11/25 11:18:44;;;;;;;5.20;0.80;;;4.90;1.00;;;;;;4991349;28;20707;-67
2023/11/25 11:21:13;;;;;;;5.90;1.67;;;4.80;1.00;;;;;;4989894;28;20889;-67
2023/11/25 11:23:39;;;;;;;4.10;0.60;;;4.80;1.00;;;;;;4991326;28;20398;-67
2023/11/25 11:26:35;;;;;;;7.20;1.30;;;4.80;1.00;;;;;;4991323;28;20401;-68
2023/11/25 11:29:28;;;;;;;3.92;0.63;;;4.60;1.00;;;;;;4991211;28;20394;-68
2023/11/25 11:32:02;;;;;;;5.00;0.90;;;4.40;1.00;;;;;;4991130;28;20453;-68
2023/11/25 11:34:33;;;;;;;5.63;1.30;;;4.20;1.00;;;;;;4991150;28;20398;-68
2023/11/25 11:37:00;;;;;;;4.90;0.50;;;4.10;84.80;;;;;;4991223;28;20410;-67
2023/11/25 11:39:33;;;;;;;5.00;0.90;;;4.10;99.90;;;;;;4991333;28;20481;-68
2023/11/25 11:45:25;;;;;;;4.20;0.70;;;3.70;99.90;;;;;;4986529;28;20417;-68
2023/11/25 11:47:53;;;;;;;3.80;0.60;;;3.60;1.00;;;;;;4991548;28;20809;-68
2023/11/25 11:50:21;;;;;;;4.50;1.10;;;3.40;1.00;;;;;;4991388;28;20414;-68
2023/11/25 11:53:01;;;;;;;4.20;0.80;;;3.40;1.00;;;;;;4989909;28;20405;-68
2023/11/25 11:55:38;;;;;;;3.40;0.30;;;3.10;18.50;;;;;;4990849;28;20494;-69
2023/11/25 11:58:08;;;;;;;6.43;1.23;;;2.90;99.90;;;;;;4990775;28;20402;-69
2023/11/25 12:00:39;;;;;;;6.40;0.85;;;3.20;99.90;;;;;;4990589;28;20389;-68
2023/11/25 12:03:06;;;;;;;3.60;0.50;;;3.40;99.90;;;;;;4990639;28;20426;-67
2023/11/25 12:05:31;;;;;;;3.80;0.47;;;3.50;99.90;;;;;;4990786;28;20391;-68
2023/11/25 12:07:58;;;;;;;3.50;0.40;;;3.50;99.90;;;;;;4990033;28;20420;-67
2023/11/25 12:10:23;;;;;;;4.55;0.98;;;3.50;99.90;;;;;;4986521;28;20425;-67
2023/11/25 12:12:49;;;;;;;3.60;0.50;;;3.60;99.90;;;;;;4990652;28;20477;-67
2023/11/25 12:15:16;;;;;;;6.20;0.70;;;3.60;50.30;;;;;;4990832;28;20510;-67
2023/11/25 12:17:42;;;;;;;4.65;0.73;;;3.70;34.20;;;;;;4990601;28;20387;-67
2023/11/25 12:20:13;;;;;;;3.60;0.70;;;3.80;1.00;;;;;;4990737;28;20958;-67
2023/11/25 12:22:39;;;;;;;4.70;0.77;;;3.60;1.00;;;;;;4990357;28;20394;-68
2023/11/25 12:25:06;;;;;;;3.80;0.73;;;3.50;1.00;;;;;;4990826;28;20398;-68
2023/11/25 12:27:34;;;;;;;3.70;0.90;;;3.50;1.00;;;;;;4990438;28;20920;-68
2023/11/25 12:30:00;;;;;;;3.72;0.52;;;3.50;1.00;;;;;;4990352;28;20394;-68
2023/11/25 12:32:25;;;;;;;5.28;0.90;;;3.60;12.00;;;;;;4990624;28;20780;-68
2023/11/25 12:34:51;;;;;;;4.30;0.80;;;3.60;1.00;;;;;;4990897;28;20452;-68
2023/11/25 12:37:16;;;;;;;16.25;0.80;;;3.70;1.00;;;;;;4990027;28;20402;-68
2023/11/25 12:39:42;;;;;;;10.30;0.93;;;3.70;1.00;;;;;;4990445;28;20461;-68
2023/11/25 12:42:08;;;;;;;7.30;0.90;;;3.80;1.00;;;;;;4990661;28;20896;-67
2023/11/25 12:44:50;;;;;;;4.30;0.90;;;3.90;1.00;;;;;;4989739;28;20777;-67
2023/11/25 12:47:16;;;;;;;4.80;1.00;;;3.90;99.90;;;;;;5000631;28;20918;-68
2023/11/25 12:49:42;;;;;;;5.20;0.70;;;4.00;99.90;;;;;;4990746;28;20410;-68
2023/11/25 12:52:19;;;;;;;6.30;1.60;;;4.00;99.90;;;;;;4990855;28;20624;-67
2023/11/25 12:54:46;;;;;;;4.22;0.65;;;4.00;99.90;;;;;;4989071;28;20395;-67
2023/11/25 12:57:12;;;;;;;4.20;1.40;;;4.10;99.90;;;;;;4990058;28;20533;-67
2023/11/25 12:59:38;;;;;;;3.85;0.50;;;3.90;99.90;;;;;;4993446;28;20393;-68
2023/11/25 13:02:08;;;;;;;4.28;0.90;;;3.90;1.00;;;;;;5008159;28;20832;-68
2023/11/25 13:04:48;;;;;;;12.20;1.02;;;4.00;1.00;;;;;;5011238;28;20384;-68
2023/11/25 13:07:33;;;;;;;4.63;0.98;;;4.10;1.00;;;;;;5013275;28;20480;-68
2023/11/25 13:10:00;;;;;;;5.07;1.50;;;4.10;1.00;;;;;;5008066;28;20466;-66
2023/11/25 13:12:28;;;;;;;4.03;0.70;;;4.10;1.00;;;;;;4995681;28;20429;-66